sensor_id;sensor_type;location;lat;lon;timestamp;temperature;humidity
54680;DHT22;40578;53.178;5.846;2023-12-20T00:01:03;6.60;99.90
54680;DHT22;40578;53.178;5.846;2023-12-20T00:03:28;6.60;99.90
54680;DHT22;40578;53.178;5.846;2023-12-20T00:05:54;6.50;99.90
54680;DHT22;40578;53.178;5.846;2023-12-20T00:08:20;6.40;99.90
54680;DHT22;40578;53.178;5.846;2023-12-20T00:10:46;6.40;99.90
54680;DHT22;40578;53.178;5.846;2023-12-20T00:13:12;6.30;99.90
54680;DHT22;40578;53.178;5.846;2023-12-20T00:15:37;6.20;99.90
54680;DHT22;40578;53.178;5.846;2023-12-20T00:18:04;6.20;99.90
54680;DHT22;40578;53.178;5.846;2023-12-20T00:20:29;6.10;99.90
54680;DHT22;40578;53.178;5.846;2023-12-20T00:22:58;6.20;99.90
54680;DHT22;40578;53.178;5.846;2023-12-20T00:25:24;6.20;99.90
54680;DHT22;40578;53.178;5.846;2023-12-20T00:27:50;7.00;99.90
54680;DHT22;40578;53.178;5.846;2023-12-20T00:30:15;6.20;99.90
54680;DHT22;40578;53.178;5.846;2023-12-20T00:32:41;6.30;99.90
54680;DHT22;40578;53.178;5.846;2023-12-20T00:35:18;6.50;99.90
54680;DHT22;40578;53.178;5.846;2023-12-20T00:37:44;6.70;99.90
54680;DHT22;40578;53.178;5.846;2023-12-20T00:40:10;6.40;99.90
54680;DHT22;40578;53.178;5.846;2023-12-20T00:42:36;6.50;99.90
54680;DHT22;40578;53.178;5.846;2023-12-20T00:45:01;6.50;99.90
54680;DHT22;40578;53.178;5.846;2023-12-20T00:47:28;6.50;99.90
54680;DHT22;40578;53.178;5.846;2023-12-20T00:49:53;6.50;99.90
54680;DHT22;40578;53.178;5.846;2023-12-20T00:52:19;6.40;99.90
54680;DHT22;40578;53.178;5.846;2023-12-20T00:54:45;6.50;99.90
54680;DHT22;40578;53.178;5.846;2023-12-20T00:57:11;6.40;99.90
54680;DHT22;40578;53.178;5.846;2023-12-20T00:59:36;6.70;99.90
54680;DHT22;40578;53.178;5.846;2023-12-20T01:02:02;6.50;99.90
54680;DHT22;40578;53.178;5.846;2023-12-20T01:04:28;6.50;99.90
54680;DHT22;40578;53.178;5.846;2023-12-20T01:06:54;6.60;99.90
54680;DHT22;40578;53.178;5.846;2023-12-20T01:09:19;6.70;99.90
54680;DHT22;40578;53.178;5.846;2023-12-20T01:11:45;6.70;99.90
54680;DHT22;40578;53.178;5.846;2023-12-20T01:14:13;6.80;99.90
54680;DHT22;40578;53.178;5.846;2023-12-20T01:16:39;6.90;99.90
54680;DHT22;40578;53.178;5.846;2023-12-20T01:19:04;6.80;99.90
54680;DHT22;40578;53.178;5.846;2023-12-20T01:21:30;6.90;99.90
54680;DHT22;40578;53.178;5.846;2023-12-20T01:23:55;6.90;99.90
54680;DHT22;40578;53.178;5.846;2023-12-20T01:26:21;6.90;99.90
54680;DHT22;40578;53.178;5.846;2023-12-20T01:28:47;7.40;99.90
54680;DHT22;40578;53.178;5.846;2023-12-20T01:31:13;6.90;99.90
54680;DHT22;40578;53.178;5.846;2023-12-20T01:33:38;7.00;99.90
54680;DHT22;40578;53.178;5.846;2023-12-20T01:36:04;7.00;99.90
54680;DHT22;40578;53.178;5.846;2023-12-20T01:38:30;7.10;99.90
54680;DHT22;40578;53.178;5.846;2023-12-20T01:40:55;7.00;99.90
54680;DHT22;40578;53.178;5.846;2023-12-20T01:43:21;7.00;99.90
54680;DHT22;40578;53.178;5.846;2023-12-20T01:45:47;7.00;99.90
54680;DHT22;40578;53.178;5.846;2023-12-20T01:48:14;7.10;99.90
54680;DHT22;40578;53.178;5.846;2023-12-20T01:50:41;7.10;99.90
54680;DHT22;40578;53.178;5.846;2023-12-20T01:53:09;7.10;99.90
54680;DHT22;40578;53.178;5.846;2023-12-20T01:55:39;7.00;99.90
54680;DHT22;40578;53.178;5.846;2023-12-20T01:58:05;7.00;99.90
54680;DHT22;40578;53.178;5.846;2023-12-20T02:00:31;7.10;99.90
54680;DHT22;40578;53.178;5.846;2023-12-20T02:03:00;7.20;99.90
54680;DHT22;40578;53.178;5.846;2023-12-20T02:05:26;7.20;99.90
54680;DHT22;40578;53.178;5.846;2023-12-20T02:07:53;7.20;99.90
54680;DHT22;40578;53.178;5.846;2023-12-20T02:10:19;7.20;99.90
54680;DHT22;40578;53.178;5.846;2023-12-20T02:12:44;7.10;99.90
54680;DHT22;40578;53.178;5.846;2023-12-20T02:15:10;7.20;99.90
54680;DHT22;40578;53.178;5.846;2023-12-20T02:17:36;7.20;99.90
54680;DHT22;40578;53.178;5.846;2023-12-20T02:20:03;7.20;99.90
54680;DHT22;40578;53.178;5.846;2023-12-20T02:22:31;7.20;99.90
54680;DHT22;40578;53.178;5.846;2023-12-20T02:24:57;7.30;99.90
54680;DHT22;40578;53.178;5.846;2023-12-20T02:27:23;7.20;99.90
54680;DHT22;40578;53.178;5.846;2023-12-20T02:29:49;7.20;99.90
54680;DHT22;40578;53.178;5.846;2023-12-20T02:32:16;7.10;99.90
54680;DHT22;40578;53.178;5.846;2023-12-20T02:34:42;7.20;99.90
54680;DHT22;40578;53.178;5.846;2023-12-20T02:37:08;7.10;99.90
54680;DHT22;40578;53.178;5.846;2023-12-20T02:39:33;7.10;99.90
54680;DHT22;40578;53.178;5.846;2023-12-20T02:41:59;7.10;99.90
54680;DHT22;40578;53.178;5.846;2023-12-20T02:44:25;7.10;99.90
54680;DHT22;40578;53.178;5.846;2023-12-20T02:46:50;7.10;99.90
54680;DHT22;40578;53.178;5.846;2023-12-20T02:49:16;7.10;99.90
54680;DHT22;40578;53.178;5.846;2023-12-20T02:51:41;7.10;99.90
54680;DHT22;40578;53.178;5.846;2023-12-20T02:54:07;7.10;99.90
54680;DHT22;40578;53.178;5.846;2023-12-20T02:56:33;7.10;99.90
54680;DHT22;40578;53.178;5.846;2023-12-20T02:58:59;7.10;99.90
54680;DHT22;40578;53.178;5.846;2023-12-20T03:01:24;7.10;99.90
54680;DHT22;40578;53.178;5.846;2023-12-20T03:03:50;7.10;99.90
54680;DHT22;40578;53.178;5.846;2023-12-20T03:06:20;7.20;99.90
54680;DHT22;40578;53.178;5.846;2023-12-20T03:08:46;7.10;99.90
54680;DHT22;40578;53.178;5.846;2023-12-20T03:11:11;7.10;99.90
54680;DHT22;40578;53.178;5.846;2023-12-20T03:13:37;7.10;99.90
54680;DHT22;40578;53.178;5.846;2023-12-20T03:16:13;7.10;99.90
54680;DHT22;40578;53.178;5.846;2023-12-20T03:18:39;7.20;99.90
54680;DHT22;40578;53.178;5.846;2023-12-20T03:21:05;7.20;99.90
54680;DHT22;40578;53.178;5.846;2023-12-20T03:23:31;7.20;99.90
54680;DHT22;40578;53.178;5.846;2023-12-20T03:25:58;7.30;99.90
54680;DHT22;40578;53.178;5.846;2023-12-20T03:28:24;7.30;99.90
54680;DHT22;40578;53.178;5.846;2023-12-20T03:30:50;7.30;99.90
54680;DHT22;40578;53.178;5.846;2023-12-20T03:33:15;7.30;99.90
54680;DHT22;40578;53.178;5.846;2023-12-20T03:35:41;7.30;99.90
54680;DHT22;40578;53.178;5.846;2023-12-20T03:38:07;7.40;99.90
54680;DHT22;40578;53.178;5.846;2023-12-20T03:40:33;7.50;99.90
54680;DHT22;40578;53.178;5.846;2023-12-20T03:42:59;7.40;99.90
54680;DHT22;40578;53.178;5.846;2023-12-20T03:45:24;7.30;99.90
54680;DHT22;40578;53.178;5.846;2023-12-20T03:47:50;8.30;99.90
54680;DHT22;40578;53.178;5.846;2023-12-20T03:50:21;7.30;99.90
54680;DHT22;40578;53.178;5.846;2023-12-20T03:52:47;7.30;99.90
54680;DHT22;40578;53.178;5.846;2023-12-20T03:55:13;7.40;99.90
54680;DHT22;40578;53.178;5.846;2023-12-20T03:57:38;7.40;99.90
54680;DHT22;40578;53.178;5.846;2023-12-20T04:00:05;7.40;99.90
54680;DHT22;40578;53.178;5.846;2023-12-20T04:02:38;7.40;99.90
54680;DHT22;40578;53.178;5.846;2023-12-20T04:05:05;7.50;99.90
54680;DHT22;40578;53.178;5.846;2023-12-20T04:07:31;7.50;99.90
54680;DHT22;40578;53.178;5.846;2023-12-20T04:09:57;7.60;99.90
54680;DHT22;40578;53.178;5.846;2023-12-20T04:12:23;7.50;99.90
54680;DHT22;40578;53.178;5.846;2023-12-20T04:14:48;7.60;99.90
54680;DHT22;40578;53.178;5.846;2023-12-20T04:17:15;8.20;99.90
54680;DHT22;40578;53.178;5.846;2023-12-20T04:19:43;7.50;99.90
54680;DHT22;40578;53.178;5.846;2023-12-20T04:22:09;7.60;99.90
54680;DHT22;40578;53.178;5.846;2023-12-20T04:24:35;7.50;99.90
54680;DHT22;40578;53.178;5.846;2023-12-20T04:27:01;7.50;99.90
54680;DHT22;40578;53.178;5.846;2023-12-20T04:29:27;7.50;99.90
54680;DHT22;40578;53.178;5.846;2023-12-20T04:31:52;7.50;99.90
54680;DHT22;40578;53.178;5.846;2023-12-20T04:34:18;7.60;99.90
54680;DHT22;40578;53.178;5.846;2023-12-20T04:36:44;7.50;99.90
54680;DHT22;40578;53.178;5.846;2023-12-20T04:39:11;7.60;99.90
54680;DHT22;40578;53.178;5.846;2023-12-20T04:41:36;7.60;99.90
54680;DHT22;40578;53.178;5.846;2023-12-20T04:44:02;7.60;99.90
54680;DHT22;40578;53.178;5.846;2023-12-20T04:46:27;7.60;99.90
54680;DHT22;40578;53.178;5.846;2023-12-20T04:48:53;7.60;99.90
54680;DHT22;40578;53.178;5.846;2023-12-20T04:51:19;7.70;99.90
54680;DHT22;40578;53.178;5.846;2023-12-20T04:53:44;7.60;99.90
54680;DHT22;40578;53.178;5.846;2023-12-20T04:56:10;7.60;99.90
54680;DHT22;40578;53.178;5.846;2023-12-20T04:58:35;7.60;99.90
54680;DHT22;40578;53.178;5.846;2023-12-20T05:01:01;7.80;99.90
54680;DHT22;40578;53.178;5.846;2023-12-20T05:03:27;7.60;99.90
54680;DHT22;40578;53.178;5.846;2023-12-20T05:05:52;7.70;99.90
54680;DHT22;40578;53.178;5.846;2023-12-20T05:08:18;7.80;99.90
54680;DHT22;40578;53.178;5.846;2023-12-20T05:10:43;7.70;99.90
54680;DHT22;40578;53.178;5.846;2023-12-20T05:13:09;7.70;99.90
54680;DHT22;40578;53.178;5.846;2023-12-20T05:15:35;7.70;99.90
54680;DHT22;40578;53.178;5.846;2023-12-20T05:18:00;7.70;99.90
54680;DHT22;40578;53.178;5.846;2023-12-20T05:20:26;7.70;99.90
54680;DHT22;40578;53.178;5.846;2023-12-20T05:22:51;7.70;99.90
54680;DHT22;40578;53.178;5.846;2023-12-20T05:25:17;8.10;99.90
54680;DHT22;40578;53.178;5.846;2023-12-20T05:27:43;7.80;99.90
54680;DHT22;40578;53.178;5.846;2023-12-20T05:30:09;7.80;99.90
54680;DHT22;40578;53.178;5.846;2023-12-20T05:32:34;7.80;99.90
54680;DHT22;40578;53.178;5.846;2023-12-20T05:35:00;7.80;99.90
54680;DHT22;40578;53.178;5.846;2023-12-20T05:37:25;7.80;99.90
54680;DHT22;40578;53.178;5.846;2023-12-20T05:39:51;7.80;99.90
54680;DHT22;40578;53.178;5.846;2023-12-20T05:42:16;7.80;99.90
54680;DHT22;40578;53.178;5.846;2023-12-20T05:44:42;7.80;99.90
54680;DHT22;40578;53.178;5.846;2023-12-20T05:47:08;7.80;99.90
54680;DHT22;40578;53.178;5.846;2023-12-20T05:49:33;7.80;99.90
54680;DHT22;40578;53.178;5.846;2023-12-20T05:51:59;7.90;99.90
54680;DHT22;40578;53.178;5.846;2023-12-20T05:54:24;7.90;99.90
54680;DHT22;40578;53.178;5.846;2023-12-20T05:56:50;7.90;99.90
54680;DHT22;40578;53.178;5.846;2023-12-20T05:59:16;7.90;99.90
54680;DHT22;40578;53.178;5.846;2023-12-20T06:01:41;7.90;99.90
54680;DHT22;40578;53.178;5.846;2023-12-20T06:04:07;8.00;99.90
54680;DHT22;40578;53.178;5.846;2023-12-20T06:06:32;8.00;99.90
54680;DHT22;40578;53.178;5.846;2023-12-20T06:08:58;8.00;99.90
54680;DHT22;40578;53.178;5.846;2023-12-20T06:11:24;8.80;99.90
54680;DHT22;40578;53.178;5.846;2023-12-20T06:13:50;8.00;99.90
54680;DHT22;40578;53.178;5.846;2023-12-20T06:16:18;8.10;99.90
54680;DHT22;40578;53.178;5.846;2023-12-20T06:18:44;8.00;99.90
54680;DHT22;40578;53.178;5.846;2023-12-20T06:21:10;8.00;99.90
54680;DHT22;40578;53.178;5.846;2023-12-20T06:23:38;8.10;99.90
54680;DHT22;40578;53.178;5.846;2023-12-20T06:26:04;8.00;99.90
54680;DHT22;40578;53.178;5.846;2023-12-20T06:28:31;8.00;99.90
54680;DHT22;40578;53.178;5.846;2023-12-20T06:30:57;8.00;99.90
54680;DHT22;40578;53.178;5.846;2023-12-20T06:33:23;8.00;99.90
54680;DHT22;40578;53.178;5.846;2023-12-20T06:35:50;8.20;99.90
54680;DHT22;40578;53.178;5.846;2023-12-20T06:38:17;8.10;99.90
54680;DHT22;40578;53.178;5.846;2023-12-20T06:40:43;8.10;99.90
54680;DHT22;40578;53.178;5.846;2023-12-20T06:43:09;8.10;99.90
54680;DHT22;40578;53.178;5.846;2023-12-20T06:45:35;8.10;99.90
54680;DHT22;40578;53.178;5.846;2023-12-20T06:48:00;8.40;99.90
54680;DHT22;40578;53.178;5.846;2023-12-20T06:50:26;8.10;99.90
54680;DHT22;40578;53.178;5.846;2023-12-20T06:52:51;8.10;99.90
54680;DHT22;40578;53.178;5.846;2023-12-20T06:55:18;8.10;99.90
54680;DHT22;40578;53.178;5.846;2023-12-20T06:57:43;8.10;99.90
54680;DHT22;40578;53.178;5.846;2023-12-20T07:00:11;8.10;99.90
54680;DHT22;40578;53.178;5.846;2023-12-20T07:02:37;8.00;99.90
54680;DHT22;40578;53.178;5.846;2023-12-20T07:05:02;8.10;99.90
54680;DHT22;40578;53.178;5.846;2023-12-20T07:07:28;8.10;99.90
54680;DHT22;40578;53.178;5.846;2023-12-20T07:09:54;8.00;99.90
54680;DHT22;40578;53.178;5.846;2023-12-20T07:12:19;8.00;99.90
54680;DHT22;40578;53.178;5.846;2023-12-20T07:14:45;8.00;99.90
54680;DHT22;40578;53.178;5.846;2023-12-20T07:17:11;7.90;99.90
54680;DHT22;40578;53.178;5.846;2023-12-20T07:19:39;7.90;99.90
54680;DHT22;40578;53.178;5.846;2023-12-20T07:22:06;7.90;99.90
54680;DHT22;40578;53.178;5.846;2023-12-20T07:24:31;7.80;99.90
54680;DHT22;40578;53.178;5.846;2023-12-20T07:26:57;7.80;99.90
54680;DHT22;40578;53.178;5.846;2023-12-20T07:29:22;7.80;99.90
54680;DHT22;40578;53.178;5.846;2023-12-20T07:31:48;7.90;99.90
54680;DHT22;40578;53.178;5.846;2023-12-20T07:34:13;7.90;99.90
54680;DHT22;40578;53.178;5.846;2023-12-20T07:36:39;8.00;99.90
54680;DHT22;40578;53.178;5.846;2023-12-20T07:39:05;8.10;99.90
54680;DHT22;40578;53.178;5.846;2023-12-20T07:41:30;8.10;99.90
54680;DHT22;40578;53.178;5.846;2023-12-20T07:43:56;8.10;99.90
54680;DHT22;40578;53.178;5.846;2023-12-20T07:46:22;8.10;99.90
54680;DHT22;40578;53.178;5.846;2023-12-20T07:48:48;8.10;99.90
54680;DHT22;40578;53.178;5.846;2023-12-20T07:51:14;8.10;99.90
54680;DHT22;40578;53.178;5.846;2023-12-20T07:53:40;8.10;99.90
54680;DHT22;40578;53.178;5.846;2023-12-20T07:56:16;8.00;99.90
54680;DHT22;40578;53.178;5.846;2023-12-20T07:58:42;8.20;99.90
54680;DHT22;40578;53.178;5.846;2023-12-20T08:01:08;8.10;99.90
54680;DHT22;40578;53.178;5.846;2023-12-20T08:03:33;7.70;99.90
54680;DHT22;40578;53.178;5.846;2023-12-20T08:05:59;7.60;99.90
54680;DHT22;40578;53.178;5.846;2023-12-20T08:08:26;7.40;99.90
54680;DHT22;40578;53.178;5.846;2023-12-20T08:10:51;7.40;99.90
54680;DHT22;40578;53.178;5.846;2023-12-20T08:13:17;7.50;99.90
54680;DHT22;40578;53.178;5.846;2023-12-20T08:15:42;7.50;99.90
54680;DHT22;40578;53.178;5.846;2023-12-20T08:18:08;7.70;99.90
54680;DHT22;40578;53.178;5.846;2023-12-20T08:20:33;7.70;99.90
54680;DHT22;40578;53.178;5.846;2023-12-20T08:22:59;7.80;99.90
54680;DHT22;40578;53.178;5.846;2023-12-20T08:25:24;7.90;99.90
54680;DHT22;40578;53.178;5.846;2023-12-20T08:27:50;7.90;99.90
54680;DHT22;40578;53.178;5.846;2023-12-20T08:30:16;7.90;99.90
54680;DHT22;40578;53.178;5.846;2023-12-20T08:32:46;7.90;99.90
54680;DHT22;40578;53.178;5.846;2023-12-20T08:35:11;8.00;99.90
54680;DHT22;40578;53.178;5.846;2023-12-20T08:37:37;8.00;99.90
54680;DHT22;40578;53.178;5.846;2023-12-20T08:40:03;8.00;99.90
54680;DHT22;40578;53.178;5.846;2023-12-20T08:42:28;8.10;99.90
54680;DHT22;40578;53.178;5.846;2023-12-20T08:44:57;8.10;99.90
54680;DHT22;40578;53.178;5.846;2023-12-20T08:47:24;8.10;99.90
54680;DHT22;40578;53.178;5.846;2023-12-20T08:49:50;8.10;99.90
54680;DHT22;40578;53.178;5.846;2023-12-20T08:52:15;8.80;99.90
54680;DHT22;40578;53.178;5.846;2023-12-20T08:54:41;8.20;99.90
54680;DHT22;40578;53.178;5.846;2023-12-20T08:57:07;8.70;99.90
54680;DHT22;40578;53.178;5.846;2023-12-20T08:59:33;8.20;99.90
54680;DHT22;40578;53.178;5.846;2023-12-20T09:01:58;7.90;99.90
54680;DHT22;40578;53.178;5.846;2023-12-20T09:04:25;7.60;99.90
54680;DHT22;40578;53.178;5.846;2023-12-20T09:06:51;7.20;99.90
54680;DHT22;40578;53.178;5.846;2023-12-20T09:09:16;7.00;99.90
54680;DHT22;40578;53.178;5.846;2023-12-20T09:11:42;7.00;99.90
54680;DHT22;40578;53.178;5.846;2023-12-20T09:14:08;6.90;99.90
54680;DHT22;40578;53.178;5.846;2023-12-20T09:16:33;6.80;99.90
54680;DHT22;40578;53.178;5.846;2023-12-20T09:18:59;6.70;99.90
54680;DHT22;40578;53.178;5.846;2023-12-20T09:21:24;6.70;99.90
54680;DHT22;40578;53.178;5.846;2023-12-20T09:23:51;6.70;99.90
54680;DHT22;40578;53.178;5.846;2023-12-20T09:26:16;6.70;99.90
54680;DHT22;40578;53.178;5.846;2023-12-20T09:28:42;6.60;99.90
54680;DHT22;40578;53.178;5.846;2023-12-20T09:31:07;6.60;99.90
54680;DHT22;40578;53.178;5.846;2023-12-20T09:33:33;6.50;99.90
54680;DHT22;40578;53.178;5.846;2023-12-20T09:35:59;6.60;99.90
54680;DHT22;40578;53.178;5.846;2023-12-20T09:38:25;6.60;99.90
54680;DHT22;40578;53.178;5.846;2023-12-20T09:40:51;6.60;99.90
54680;DHT22;40578;53.178;5.846;2023-12-20T09:43:19;6.60;99.90
54680;DHT22;40578;53.178;5.846;2023-12-20T09:45:47;6.60;99.90
54680;DHT22;40578;53.178;5.846;2023-12-20T09:48:13;6.70;99.90
54680;DHT22;40578;53.178;5.846;2023-12-20T09:50:43;6.70;99.90
54680;DHT22;40578;53.178;5.846;2023-12-20T09:53:10;6.70;99.90
54680;DHT22;40578;53.178;5.846;2023-12-20T09:55:38;6.60;99.90
54680;DHT22;40578;53.178;5.846;2023-12-20T09:58:05;6.70;99.90
54680;DHT22;40578;53.178;5.846;2023-12-20T10:00:32;6.60;99.90
54680;DHT22;40578;53.178;5.846;2023-12-20T10:02:59;6.60;99.90
54680;DHT22;40578;53.178;5.846;2023-12-20T10:05:30;6.70;99.90
54680;DHT22;40578;53.178;5.846;2023-12-20T10:07:56;7.30;99.90
54680;DHT22;40578;53.178;5.846;2023-12-20T10:10:22;6.70;99.90
54680;DHT22;40578;53.178;5.846;2023-12-20T10:15:27;6.90;99.90
54680;DHT22;40578;53.178;5.846;2023-12-20T10:17:52;7.00;99.90
54680;DHT22;40578;53.178;5.846;2023-12-20T10:20:20;7.00;99.90
54680;DHT22;40578;53.178;5.846;2023-12-20T10:22:46;7.10;99.90
54680;DHT22;40578;53.178;5.846;2023-12-20T10:25:13;7.10;99.90
54680;DHT22;40578;53.178;5.846;2023-12-20T10:27:38;7.10;99.90
54680;DHT22;40578;53.178;5.846;2023-12-20T10:30:04;7.10;99.90
54680;DHT22;40578;53.178;5.846;2023-12-20T10:32:31;7.20;99.90
54680;DHT22;40578;53.178;5.846;2023-12-20T10:34:57;7.20;99.90
54680;DHT22;40578;53.178;5.846;2023-12-20T10:37:22;7.30;99.90
54680;DHT22;40578;53.178;5.846;2023-12-20T10:39:52;7.30;99.90
54680;DHT22;40578;53.178;5.846;2023-12-20T10:42:22;7.30;99.90
54680;DHT22;40578;53.178;5.846;2023-12-20T10:44:49;7.40;99.90
54680;DHT22;40578;53.178;5.846;2023-12-20T10:47:15;7.40;99.90
54680;DHT22;40578;53.178;5.846;2023-12-20T10:49:41;7.40;99.90
54680;DHT22;40578;53.178;5.846;2023-12-20T10:52:08;7.50;99.90
54680;DHT22;40578;53.178;5.846;2023-12-20T10:54:34;7.50;99.90
54680;DHT22;40578;53.178;5.846;2023-12-20T10:57:00;7.50;99.90
54680;DHT22;40578;53.178;5.846;2023-12-20T10:59:29;7.50;99.90
54680;DHT22;40578;53.178;5.846;2023-12-20T11:01:59;7.60;99.90
54680;DHT22;40578;53.178;5.846;2023-12-20T11:10:03;7.60;99.90
54680;DHT22;40578;53.178;5.846;2023-12-20T11:15:11;7.60;99.90
54680;DHT22;40578;53.178;5.846;2023-12-20T11:17:39;7.70;99.90
54680;DHT22;40578;53.178;5.846;2023-12-20T11:20:06;7.70;99.90
54680;DHT22;40578;53.178;5.846;2023-12-20T11:22:34;7.80;99.90
54680;DHT22;40578;53.178;5.846;2023-12-20T11:25:10;7.80;99.90
54680;DHT22;40578;53.178;5.846;2023-12-20T11:27:41;7.80;99.90
54680;DHT22;40578;53.178;5.846;2023-12-20T11:30:07;7.90;99.90
54680;DHT22;40578;53.178;5.846;2023-12-20T11:32:35;7.90;99.90
54680;DHT22;40578;53.178;5.846;2023-12-20T11:37:36;8.40;99.90
54680;DHT22;40578;53.178;5.846;2023-12-20T11:40:06;7.90;99.90
54680;DHT22;40578;53.178;5.846;2023-12-20T11:42:41;7.90;99.90
54680;DHT22;40578;53.178;5.846;2023-12-20T11:45:14;7.90;99.90
54680;DHT22;40578;53.178;5.846;2023-12-20T11:47:43;7.90;99.90
54680;DHT22;40578;53.178;5.846;2023-12-20T11:50:10;8.10;99.90
54680;DHT22;40578;53.178;5.846;2023-12-20T11:52:36;7.90;99.90
54680;DHT22;40578;53.178;5.846;2023-12-20T11:55:02;7.90;99.90
54680;DHT22;40578;53.178;5.846;2023-12-20T11:57:29;8.00;99.90
54680;DHT22;40578;53.178;5.846;2023-12-20T11:59:55;8.00;99.90
54680;DHT22;40578;53.178;5.846;2023-12-20T12:02:21;8.00;99.90
54680;DHT22;40578;53.178;5.846;2023-12-20T12:04:48;8.00;99.90
54680;DHT22;40578;53.178;5.846;2023-12-20T12:07:14;7.90;99.90
54680;DHT22;40578;53.178;5.846;2023-12-20T12:09:40;7.90;99.90
54680;DHT22;40578;53.178;5.846;2023-12-20T12:12:06;7.90;99.90
54680;DHT22;40578;53.178;5.846;2023-12-20T12:14:32;7.90;99.90
54680;DHT22;40578;53.178;5.846;2023-12-20T12:16:57;7.80;99.90
54680;DHT22;40578;53.178;5.846;2023-12-20T12:19:24;7.80;99.90
54680;DHT22;40578;53.178;5.846;2023-12-20T12:22:12;7.80;99.90
54680;DHT22;40578;53.178;5.846;2023-12-20T12:24:45;7.80;99.90
54680;DHT22;40578;53.178;5.846;2023-12-20T12:27:12;7.80;99.90
54680;DHT22;40578;53.178;5.846;2023-12-20T12:29:38;7.70;99.90
54680;DHT22;40578;53.178;5.846;2023-12-20T12:32:08;7.60;99.90
54680;DHT22;40578;53.178;5.846;2023-12-20T12:34:35;7.60;99.90
54680;DHT22;40578;53.178;5.846;2023-12-20T12:37:01;7.50;99.90
54680;DHT22;40578;53.178;5.846;2023-12-20T12:39:27;7.40;99.90
54680;DHT22;40578;53.178;5.846;2023-12-20T12:41:53;7.30;99.90
54680;DHT22;40578;53.178;5.846;2023-12-20T12:44:19;7.30;99.90
54680;DHT22;40578;53.178;5.846;2023-12-20T12:46:46;7.20;99.90
54680;DHT22;40578;53.178;5.846;2023-12-20T12:49:12;7.20;99.90
54680;DHT22;40578;53.178;5.846;2023-12-20T12:51:38;7.20;99.90
54680;DHT22;40578;53.178;5.846;2023-12-20T12:54:03;7.10;99.90
54680;DHT22;40578;53.178;5.846;2023-12-20T12:56:29;7.10;99.90
54680;DHT22;40578;53.178;5.846;2023-12-20T12:58:55;7.10;99.90
54680;DHT22;40578;53.178;5.846;2023-12-20T13:01:21;7.10;99.90
54680;DHT22;40578;53.178;5.846;2023-12-20T13:03:46;7.10;99.90
54680;DHT22;40578;53.178;5.846;2023-12-20T13:06:12;7.10;99.90
54680;DHT22;40578;53.178;5.846;2023-12-20T13:08:38;7.10;99.90
54680;DHT22;40578;53.178;5.846;2023-12-20T13:11:03;7.00;99.90
54680;DHT22;40578;53.178;5.846;2023-12-20T13:13:30;7.00;99.90
54680;DHT22;40578;53.178;5.846;2023-12-20T13:15:56;7.00;99.90
54680;DHT22;40578;53.178;5.846;2023-12-20T13:18:25;6.90;99.90
54680;DHT22;40578;53.178;5.846;2023-12-20T13:20:51;6.90;99.90
54680;DHT22;40578;53.178;5.846;2023-12-20T13:23:16;6.90;99.90
54680;DHT22;40578;53.178;5.846;2023-12-20T13:25:43;6.80;99.90
54680;DHT22;40578;53.178;5.846;2023-12-20T13:28:10;6.80;99.90
54680;DHT22;40578;53.178;5.846;2023-12-20T13:30:36;6.80;99.90
54680;DHT22;40578;53.178;5.846;2023-12-20T13:33:02;6.80;99.90
54680;DHT22;40578;53.178;5.846;2023-12-20T13:35:28;6.90;99.90
54680;DHT22;40578;53.178;5.846;2023-12-20T13:37:54;7.10;99.90
54680;DHT22;40578;53.178;5.846;2023-12-20T13:40:19;6.90;99.90
54680;DHT22;40578;53.178;5.846;2023-12-20T13:42:45;6.80;99.90
54680;DHT22;40578;53.178;5.846;2023-12-20T13:45:11;6.80;99.90
54680;DHT22;40578;53.178;5.846;2023-12-20T13:47:36;6.80;99.90
54680;DHT22;40578;53.178;5.846;2023-12-20T13:50:03;6.80;99.90
54680;DHT22;40578;53.178;5.846;2023-12-20T13:52:29;6.80;99.90
54680;DHT22;40578;53.178;5.846;2023-12-20T13:54:55;6.80;99.90
54680;DHT22;40578;53.178;5.846;2023-12-20T13:57:20;6.90;99.90
54680;DHT22;40578;53.178;5.846;2023-12-20T13:59:46;6.90;99.90
54680;DHT22;40578;53.178;5.846;2023-12-20T14:02:11;6.90;99.90
54680;DHT22;40578;53.178;5.846;2023-12-20T14:04:37;7.20;99.90
54680;DHT22;40578;53.178;5.846;2023-12-20T14:07:05;6.90;99.90
54680;DHT22;40578;53.178;5.846;2023-12-20T14:09:30;6.90;99.90
54680;DHT22;40578;53.178;5.846;2023-12-20T14:11:56;6.90;99.90
54680;DHT22;40578;53.178;5.846;2023-12-20T14:14:21;7.20;99.90
54680;DHT22;40578;53.178;5.846;2023-12-20T14:16:47;6.90;99.90
54680;DHT22;40578;53.178;5.846;2023-12-20T14:19:13;6.90;99.90
54680;DHT22;40578;53.178;5.846;2023-12-20T14:21:38;6.90;99.90
54680;DHT22;40578;53.178;5.846;2023-12-20T14:24:04;6.90;99.90
54680;DHT22;40578;53.178;5.846;2023-12-20T14:26:30;6.90;99.90
54680;DHT22;40578;53.178;5.846;2023-12-20T14:28:57;6.90;99.90
54680;DHT22;40578;53.178;5.846;2023-12-20T14:31:23;6.90;99.90
54680;DHT22;40578;53.178;5.846;2023-12-20T14:33:50;7.00;99.90
54680;DHT22;40578;53.178;5.846;2023-12-20T14:36:18;7.10;99.90
54680;DHT22;40578;53.178;5.846;2023-12-20T14:38:45;7.10;99.90
54680;DHT22;40578;53.178;5.846;2023-12-20T14:41:12;7.80;99.90
54680;DHT22;40578;53.178;5.846;2023-12-20T14:43:38;7.20;99.90
54680;DHT22;40578;53.178;5.846;2023-12-20T14:46:03;7.20;99.90
54680;DHT22;40578;53.178;5.846;2023-12-20T14:48:31;7.40;99.90
54680;DHT22;40578;53.178;5.846;2023-12-20T14:50:57;7.40;99.90
54680;DHT22;40578;53.178;5.846;2023-12-20T14:53:24;8.30;99.90
54680;DHT22;40578;53.178;5.846;2023-12-20T14:55:54;7.50;99.90
54680;DHT22;40578;53.178;5.846;2023-12-20T14:58:20;7.50;99.90
54680;DHT22;40578;53.178;5.846;2023-12-20T15:00:45;7.50;99.90
54680;DHT22;40578;53.178;5.846;2023-12-20T15:03:11;7.60;99.90
54680;DHT22;40578;53.178;5.846;2023-12-20T15:05:37;7.60;99.90
54680;DHT22;40578;53.178;5.846;2023-12-20T15:08:04;7.70;99.90
54680;DHT22;40578;53.178;5.846;2023-12-20T15:10:30;7.70;99.90
54680;DHT22;40578;53.178;5.846;2023-12-20T15:12:56;7.80;99.90
54680;DHT22;40578;53.178;5.846;2023-12-20T15:15:21;7.80;99.90
54680;DHT22;40578;53.178;5.846;2023-12-20T15:17:47;7.90;99.90
54680;DHT22;40578;53.178;5.846;2023-12-20T15:20:13;7.80;99.90
54680;DHT22;40578;53.178;5.846;2023-12-20T15:22:39;7.90;99.90
54680;DHT22;40578;53.178;5.846;2023-12-20T15:25:07;7.90;99.90
54680;DHT22;40578;53.178;5.846;2023-12-20T15:27:35;7.90;99.90
54680;DHT22;40578;53.178;5.846;2023-12-20T15:30:03;8.90;99.90
54680;DHT22;40578;53.178;5.846;2023-12-20T15:32:28;7.80;99.90
54680;DHT22;40578;53.178;5.846;2023-12-20T15:34:54;7.70;99.90
54680;DHT22;40578;53.178;5.846;2023-12-20T15:37:20;8.90;99.90
54680;DHT22;40578;53.178;5.846;2023-12-20T15:39:45;7.60;99.90
54680;DHT22;40578;53.178;5.846;2023-12-20T15:42:11;7.60;99.90
54680;DHT22;40578;53.178;5.846;2023-12-20T15:44:36;7.60;99.90
54680;DHT22;40578;53.178;5.846;2023-12-20T15:47:02;7.60;99.90
54680;DHT22;40578;53.178;5.846;2023-12-20T15:49:28;7.60;99.90
54680;DHT22;40578;53.178;5.846;2023-12-20T15:51:54;7.60;99.90